createdAt,value
2023-02-06T00:00:50.629Z,100.00
2023-02-06T00:03:17.451Z,100.00
2023-02-06T00:05:43.922Z,100.00
2023-02-06T00:08:10.499Z,100.00
2023-02-06T00:10:37.163Z,100.00
2023-02-06T00:13:03.872Z,100.00
2023-02-06T00:15:30.302Z,100.00
2023-02-06T00:17:56.868Z,100.00
2023-02-06T00:20:23.403Z,100.00
2023-02-06T00:22:49.814Z,100.00
2023-02-06T00:25:16.295Z,100.00
2023-02-06T00:27:42.965Z,100.00
2023-02-06T00:30:10.124Z,100.00
2023-02-06T00:32:37.244Z,100.00
2023-02-06T00:35:04.501Z,100.00
2023-02-06T00:37:31.190Z,100.00
2023-02-06T00:39:57.877Z,100.00
2023-02-06T00:42:24.359Z,100.00
2023-02-06T00:44:50.962Z,100.00
2023-02-06T00:47:17.499Z,100.00
2023-02-06T00:49:43.932Z,100.00
2023-02-06T00:52:10.681Z,100.00
2023-02-06T00:54:37.137Z,100.00
2023-02-06T00:57:03.760Z,100.00
2023-02-06T00:59:30.539Z,100.00
2023-02-06T01:01:57.070Z,100.00
2023-02-06T01:04:23.587Z,100.00
2023-02-06T01:06:50.034Z,100.00
2023-02-06T01:09:16.566Z,100.00
2023-02-06T01:11:43.062Z,100.00
2023-02-06T01:14:09.566Z,100.00
2023-02-06T01:16:36.058Z,100.00
2023-02-06T01:19:02.625Z,100.00
2023-02-06T01:21:29.264Z,100.00
2023-02-06T01:23:55.772Z,100.00
2023-02-06T01:26:25.881Z,100.00
2023-02-06T01:28:53.614Z,100.00
2023-02-06T01:31:28.926Z,100.00
2023-02-06T01:33:57.264Z,100.00
2023-02-06T01:36:24.169Z,100.00
2023-02-06T01:38:51.541Z,100.00
2023-02-06T01:41:20.222Z,100.00
2023-02-06T01:44:06.708Z,100.00
2023-02-06T01:46:33.773Z,100.00
2023-02-06T01:49:02.065Z,100.00
2023-02-06T01:51:30.604Z,100.00
2023-02-06T01:54:02.107Z,100.00
2023-02-06T01:56:32.680Z,100.00
2023-02-06T01:59:01.011Z,100.00
2023-02-06T02:01:27.616Z,100.00
2023-02-06T02:03:58.100Z,100.00
2023-02-06T02:06:26.587Z,100.00
2023-02-06T02:08:58.246Z,100.00
2023-02-06T02:11:32.199Z,100.00
2023-02-06T02:14:00.549Z,100.00
2023-02-06T02:16:45.897Z,100.00
2023-02-06T02:19:18.507Z,100.00
2023-02-06T02:21:54.068Z,100.00
2023-02-06T02:24:43.627Z,100.00
2023-02-06T02:27:32.513Z,100.00
2023-02-06T02:30:11.345Z,100.00
2023-02-06T02:32:56.484Z,100.00
2023-02-06T02:35:32.127Z,100.00
2023-02-06T02:38:11.131Z,100.00
2023-02-06T02:40:55.233Z,100.00
2023-02-06T02:43:43.025Z,100.00
2023-02-06T02:46:51.293Z,100.00
2023-02-06T02:49:22.694Z,100.00
2023-02-06T02:51:51.118Z,100.00
2023-02-06T02:54:17.997Z,100.00
2023-02-06T02:56:45.049Z,100.00
2023-02-06T02:59:16.768Z,100.00
2023-02-06T03:01:50.179Z,100.00
2023-02-06T03:04:22.911Z,100.00
2023-02-06T03:07:12.342Z,100.00
2023-02-06T03:10:16.607Z,100.00
2023-02-06T03:12:54.147Z,100.00
2023-02-06T03:15:27.015Z,100.00
2023-02-06T03:18:26.322Z,100.00
2023-02-06T03:20:53.249Z,100.00
2023-02-06T03:23:29.518Z,100.00
2023-02-06T03:26:00.699Z,100.00
2023-02-06T03:28:33.709Z,100.00
2023-02-06T03:31:05.563Z,100.00
2023-02-06T03:33:37.941Z,100.00
2023-02-06T03:36:04.852Z,100.00
2023-02-06T03:38:32.469Z,100.00
2023-02-06T03:41:02.097Z,100.00
2023-02-06T03:43:30.407Z,100.00
2023-02-06T03:46:01.693Z,100.00
2023-02-06T03:48:34.254Z,100.00
2023-02-06T03:51:06.426Z,100.00
2023-02-06T03:53:34.520Z,100.00
2023-02-06T03:56:07.914Z,100.00
2023-02-06T03:58:34.745Z,100.00
2023-02-06T04:01:04.096Z,100.00
2023-02-06T04:03:31.108Z,100.00
2023-02-06T04:05:57.639Z,100.00
2023-02-06T04:08:24.511Z,100.00
2023-02-06T04:10:51.037Z,100.00
2023-02-06T04:13:17.574Z,100.00
2023-02-06T04:15:44.008Z,100.00
2023-02-06T04:18:10.556Z,100.00
2023-02-06T04:20:37.194Z,100.00
2023-02-06T04:23:03.615Z,100.00
2023-02-06T04:25:30.170Z,100.00
2023-02-06T04:27:56.764Z,100.00
2023-02-06T04:30:23.500Z,100.00
2023-02-06T04:32:50.104Z,100.00
2023-02-06T04:35:16.844Z,100.00
2023-02-06T04:37:43.266Z,100.00
2023-02-06T04:40:11.002Z,100.00
2023-02-06T04:42:38.028Z,100.00
2023-02-06T04:45:04.900Z,100.00
2023-02-06T04:47:31.394Z,100.00
2023-02-06T04:49:58.034Z,100.00
2023-02-06T04:52:24.600Z,100.00
2023-02-06T04:54:51.123Z,100.00
2023-02-06T04:57:17.633Z,100.00
2023-02-06T04:59:44.098Z,100.00
2023-02-06T05:02:10.518Z,100.00
2023-02-06T05:04:37.223Z,100.00
2023-02-06T05:07:05.492Z,100.00
2023-02-06T05:09:32.281Z,100.00
2023-02-06T05:11:59.567Z,100.00
2023-02-06T05:14:26.179Z,100.00
2023-02-06T05:16:52.606Z,100.00
2023-02-06T05:19:19.160Z,100.00
2023-02-06T05:21:45.727Z,100.00
2023-02-06T05:24:13.056Z,100.00
2023-02-06T05:26:39.543Z,100.00
2023-02-06T05:29:06.341Z,100.00
2023-02-06T05:31:33.011Z,100.00
2023-02-06T05:33:59.629Z,100.00
2023-02-06T05:36:26.428Z,100.00
2023-02-06T05:38:52.918Z,100.00
2023-02-06T05:41:19.438Z,100.00
2023-02-06T05:43:46.394Z,100.00
2023-02-06T05:46:13.456Z,100.00
2023-02-06T05:48:40.494Z,100.00
2023-02-06T05:51:06.959Z,100.00
2023-02-06T05:53:33.480Z,100.00
2023-02-06T05:56:00.016Z,100.00
2023-02-06T05:58:26.869Z,100.00
2023-02-06T06:00:53.399Z,100.00
2023-02-06T06:03:19.941Z,100.00
2023-02-06T06:05:46.788Z,100.00
2023-02-06T06:08:13.330Z,100.00
2023-02-06T06:10:39.840Z,100.00
2023-02-06T06:13:06.346Z,100.00
2023-02-06T06:15:32.845Z,100.00
2023-02-06T06:17:59.552Z,100.00
2023-02-06T06:20:26.044Z,100.00
2023-02-06T06:22:52.445Z,100.00
2023-02-06T06:25:20.512Z,100.00
2023-02-06T06:27:47.051Z,100.00
2023-02-06T06:30:13.830Z,100.00
2023-02-06T06:32:40.363Z,100.00
2023-02-06T06:35:07.014Z,100.00
2023-02-06T06:37:33.549Z,100.00
2023-02-06T06:40:00.208Z,100.00
2023-02-06T06:42:26.730Z,100.00
2023-02-06T06:44:53.360Z,100.00
2023-02-06T06:47:19.901Z,100.00
2023-02-06T06:49:46.353Z,100.00
2023-02-06T06:52:23.984Z,100.00
2023-02-06T06:54:52.394Z,100.00
2023-02-06T06:57:19.777Z,100.00
2023-02-06T06:59:46.262Z,100.00
2023-02-06T07:02:12.869Z,100.00
2023-02-06T07:04:39.495Z,100.00
2023-02-06T07:07:06.916Z,100.00
2023-02-06T07:09:33.396Z,100.00
2023-02-06T07:12:00.419Z,100.00
2023-02-06T07:14:26.893Z,100.00
2023-02-06T07:16:53.352Z,100.00
2023-02-06T07:19:19.966Z,100.00
2023-02-06T07:21:46.609Z,100.00
2023-02-06T07:24:13.351Z,100.00
2023-02-06T07:26:39.866Z,100.00
2023-02-06T07:29:06.384Z,100.00
2023-02-06T07:31:32.923Z,100.00
2023-02-06T07:34:00.328Z,100.00
2023-02-06T07:36:26.752Z,100.00
2023-02-06T07:38:53.185Z,100.00
2023-02-06T07:41:19.612Z,100.00
2023-02-06T07:43:46.049Z,100.00
2023-02-06T07:46:12.672Z,100.00
2023-02-06T07:48:39.358Z,100.00
2023-02-06T07:51:09.545Z,100.00
2023-02-06T07:53:37.164Z,100.00
2023-02-06T07:56:13.719Z,100.00
2023-02-06T07:58:41.090Z,100.00
2023-02-06T08:01:07.798Z,100.00
2023-02-06T08:03:34.561Z,100.00
2023-02-06T08:06:01.218Z,100.00
2023-02-06T08:08:27.955Z,100.00
2023-02-06T08:10:54.405Z,100.00
2023-02-06T08:13:20.997Z,100.00
2023-02-06T08:15:47.470Z,100.00
2023-02-06T08:18:13.905Z,100.00
2023-02-06T08:20:40.378Z,100.00
2023-02-06T08:23:06.831Z,100.00
2023-02-06T08:25:33.477Z,100.00
2023-02-06T08:28:00.123Z,100.00
2023-02-06T08:30:26.833Z,99.79
2023-02-06T08:32:53.450Z,98.69
2023-02-06T08:35:20.039Z,98.96
2023-02-06T08:37:46.476Z,99.72
2023-02-06T08:40:13.063Z,99.55
2023-02-06T08:42:39.564Z,99.66
2023-02-06T08:45:06.750Z,99.14
2023-02-06T08:47:33.155Z,98.63
2023-02-06T08:50:02.102Z,98.83
2023-02-06T08:52:29.679Z,98.71
2023-02-06T08:54:56.075Z,98.25
2023-02-06T08:57:22.612Z,98.80
2023-02-06T08:59:49.054Z,98.81
2023-02-06T09:02:15.656Z,98.56
2023-02-06T09:04:42.241Z,98.54
2023-02-06T09:07:08.725Z,98.82
2023-02-06T09:09:35.182Z,98.14
2023-02-06T09:12:01.861Z,98.23
2023-02-06T09:14:28.271Z,98.30
2023-02-06T09:16:55.036Z,98.27
2023-02-06T09:19:21.918Z,98.71
2023-02-06T09:21:48.427Z,98.30
2023-02-06T09:24:14.900Z,98.52
2023-02-06T09:26:58.412Z,97.21
2023-02-06T09:29:25.295Z,96.76
2023-02-06T09:31:51.787Z,97.51
2023-02-06T09:34:18.355Z,97.25
2023-02-06T09:36:44.788Z,97.49
2023-02-06T09:39:11.409Z,95.63
2023-02-06T09:41:52.678Z,94.83
2023-02-06T09:44:33.558Z,93.77
2023-02-06T09:47:03.554Z,94.79
2023-02-06T09:49:44.454Z,95.58
2023-02-06T09:52:14.165Z,95.32
2023-02-06T09:54:57.278Z,94.49
2023-02-06T09:57:42.364Z,93.99
2023-02-06T10:00:28.701Z,93.18
2023-02-06T10:03:34.532Z,92.84
2023-02-06T10:06:24.777Z,91.45
2023-02-06T10:09:03.355Z,91.68
2023-02-06T10:12:01.462Z,91.91
2023-02-06T10:15:03.191Z,92.50
2023-02-06T10:17:37.049Z,91.58
2023-02-06T10:20:15.830Z,88.34
2023-02-06T10:22:51.251Z,90.54
2023-02-06T10:25:21.415Z,89.28
2023-02-06T10:27:56.674Z,89.89
2023-02-06T10:31:02.526Z,91.18
2023-02-06T10:33:35.814Z,90.39
2023-02-06T10:36:39.731Z,90.09
2023-02-06T10:39:24.952Z,90.60
2023-02-06T10:42:11.613Z,91.41
2023-02-06T10:44:53.748Z,90.69
2023-02-06T10:47:38.279Z,89.15
2023-02-06T10:50:28.493Z,90.29
2023-02-06T10:52:59.733Z,90.00
2023-02-06T10:55:29.988Z,88.70
2023-02-06T10:58:15.852Z,85.95
2023-02-06T11:00:45.596Z,83.83
2023-02-06T11:03:20.357Z,83.70
2023-02-06T11:05:47.167Z,83.22
2023-02-06T11:08:22.716Z,83.88
2023-02-06T11:10:49.592Z,84.29
2023-02-06T11:13:26.030Z,82.08
2023-02-06T11:16:04.572Z,82.21
2023-02-06T11:18:40.172Z,83.23
2023-02-06T11:21:09.401Z,83.01
2023-02-06T11:23:36.357Z,83.84
2023-02-06T11:26:18.240Z,84.22
2023-02-06T11:28:59.816Z,82.65
2023-02-06T11:31:51.944Z,82.56
2023-02-06T11:34:29.005Z,82.01
2023-02-06T11:36:58.923Z,78.37
2023-02-06T11:39:36.882Z,78.06
2023-02-06T11:42:25.763Z,79.10
2023-02-06T11:44:52.219Z,79.81
2023-02-06T11:47:45.245Z,80.11
2023-02-06T11:50:14.455Z,81.00
2023-02-06T11:52:43.931Z,79.37
2023-02-06T11:55:27.184Z,80.70
2023-02-06T11:58:12.487Z,82.09
2023-02-06T12:00:51.335Z,82.26
2023-02-06T12:03:26.857Z,81.27
2023-02-06T12:05:55.756Z,81.40
2023-02-06T12:08:27.085Z,79.49
2023-02-06T12:11:01.111Z,79.97
2023-02-06T12:13:37.996Z,81.22
2023-02-06T12:16:07.289Z,80.66
2023-02-06T12:18:41.917Z,78.87
2023-02-06T12:21:16.981Z,80.15
2023-02-06T12:23:49.658Z,78.02
2023-02-06T12:26:19.979Z,77.58
2023-02-06T12:29:13.147Z,79.41
2023-02-06T12:31:42.426Z,77.73
2023-02-06T12:34:19.991Z,77.78
2023-02-06T12:36:56.555Z,78.43
2023-02-06T12:39:23.668Z,78.67
2023-02-06T12:42:05.828Z,79.57
2023-02-06T12:44:51.250Z,79.37
2023-02-06T12:47:32.469Z,78.57
2023-02-06T12:50:15.247Z,77.79
2023-02-06T12:52:51.313Z,76.54
2023-02-06T12:55:29.873Z,76.92
2023-02-06T12:57:56.812Z,77.65
2023-02-06T13:00:38.993Z,77.91
2023-02-06T13:03:20.948Z,77.78
2023-02-06T13:05:51.741Z,78.27
2023-02-06T13:08:56.185Z,77.22
2023-02-06T13:11:38.364Z,76.66
2023-02-06T13:14:18.330Z,77.19
2023-02-06T13:16:55.204Z,77.89
2023-02-06T13:19:24.104Z,77.61
2023-02-06T13:22:10.817Z,78.39
2023-02-06T13:24:39.865Z,76.89
2023-02-06T13:27:09.065Z,75.99
2023-02-06T13:29:44.771Z,75.04
2023-02-06T13:32:11.141Z,75.67
2023-02-06T13:34:49.894Z,76.03
2023-02-06T13:37:32.416Z,74.75
2023-02-06T13:40:23.870Z,75.56
2023-02-06T13:43:14.381Z,75.22
2023-02-06T13:45:56.926Z,73.96
2023-02-06T13:48:35.706Z,74.71
2023-02-06T13:51:17.802Z,75.65
2023-02-06T13:54:13.831Z,76.48
2023-02-06T13:57:08.690Z,75.88
2023-02-06T13:59:41.087Z,75.88
2023-02-06T14:02:16.410Z,75.91
2023-02-06T14:04:45.870Z,76.25
2023-02-06T14:07:31.048Z,74.86
2023-02-06T14:10:16.396Z,73.30
2023-02-06T14:13:04.713Z,74.88
2023-02-06T14:15:40.970Z,75.10
2023-02-06T14:18:14.433Z,75.89
2023-02-06T14:21:31.762Z,75.21
2023-02-06T14:24:19.215Z,75.47
2023-02-06T14:26:45.728Z,76.24
2023-02-06T14:29:20.313Z,76.44
2023-02-06T14:31:49.798Z,76.21
2023-02-06T14:34:41.500Z,76.13
2023-02-06T14:37:27.905Z,76.00
2023-02-06T14:39:56.957Z,76.77
2023-02-06T14:42:40.560Z,77.41
2023-02-06T14:45:22.847Z,76.47
2023-02-06T14:47:50.464Z,76.97
2023-02-06T14:50:24.354Z,76.89
2023-02-06T14:52:55.546Z,77.15
2023-02-06T14:55:32.571Z,77.16
2023-02-06T14:57:59.816Z,77.16
2023-02-06T15:00:27.298Z,76.27
2023-02-06T15:03:21.423Z,76.63
2023-02-06T15:05:59.646Z,77.15
2023-02-06T15:08:26.309Z,77.04
2023-02-06T15:11:01.280Z,77.27
2023-02-06T15:13:30.551Z,77.35
2023-02-06T15:15:57.470Z,77.73
2023-02-06T15:18:24.344Z,77.68
2023-02-06T15:21:13.725Z,77.75
2023-02-06T15:23:46.105Z,77.57
2023-02-06T15:26:47.045Z,77.31
2023-02-06T15:29:23.315Z,77.56
2023-02-06T15:31:51.986Z,77.66
2023-02-06T15:34:22.230Z,76.81
2023-02-06T15:36:49.085Z,76.80
2023-02-06T15:39:17.775Z,77.27
2023-02-06T15:41:50.140Z,77.08
2023-02-06T15:44:22.796Z,77.39
2023-02-06T15:46:50.997Z,77.71
2023-02-06T15:49:26.392Z,78.15
2023-02-06T15:51:54.941Z,77.45
2023-02-06T15:54:25.345Z,77.48
2023-02-06T15:56:58.809Z,77.37
2023-02-06T15:59:26.721Z,77.43
2023-02-06T16:01:55.589Z,77.52
2023-02-06T16:04:27.923Z,77.52
2023-02-06T16:07:18.140Z,77.44
2023-02-06T16:09:55.993Z,77.30
2023-02-06T16:12:23.437Z,77.74
2023-02-06T16:15:01.163Z,77.75
2023-02-06T16:17:35.062Z,77.61
2023-02-06T16:20:25.698Z,77.41
2023-02-06T16:22:52.917Z,77.28
2023-02-06T16:25:22.315Z,77.43
2023-02-06T16:27:50.062Z,77.36
2023-02-06T16:30:24.911Z,77.56
2023-02-06T16:32:54.675Z,77.51
2023-02-06T16:35:22.683Z,77.66
2023-02-06T16:37:52.125Z,77.94
2023-02-06T16:40:19.056Z,77.92
2023-02-06T16:42:46.633Z,78.02
2023-02-06T16:45:24.656Z,78.22
2023-02-06T16:47:51.247Z,78.61
2023-02-06T16:50:18.570Z,78.93
2023-02-06T16:52:54.277Z,79.20
2023-02-06T16:55:23.611Z,79.48
2023-02-06T16:57:54.842Z,80.37
2023-02-06T17:00:24.906Z,80.73
2023-02-06T17:02:52.546Z,80.46
2023-02-06T17:05:21.332Z,81.39
2023-02-06T17:07:48.696Z,81.11
2023-02-06T17:10:16.735Z,81.17
2023-02-06T17:12:43.710Z,81.47
2023-02-06T17:15:13.506Z,81.83
2023-02-06T17:17:40.540Z,81.68
2023-02-06T17:20:28.090Z,81.26
2023-02-06T17:22:54.949Z,81.73
2023-02-06T17:25:21.796Z,81.42
2023-02-06T17:27:48.369Z,81.54
2023-02-06T17:30:19.954Z,81.50
2023-02-06T17:32:46.634Z,81.47
2023-02-06T17:35:13.703Z,82.35
2023-02-06T17:37:40.231Z,82.64
2023-02-06T17:40:08.248Z,82.98
2023-02-06T17:42:34.751Z,82.66
2023-02-06T17:45:01.384Z,84.04
2023-02-06T17:47:28.182Z,86.89
2023-02-06T17:49:54.809Z,86.05
2023-02-06T17:52:21.511Z,88.25
2023-02-06T17:54:47.967Z,87.98
2023-02-06T17:57:14.485Z,91.48
2023-02-06T17:59:41.157Z,91.06
2023-02-06T18:02:12.248Z,89.12
2023-02-06T18:04:39.019Z,86.86
2023-02-06T18:07:07.001Z,88.48
2023-02-06T18:09:33.730Z,87.32
2023-02-06T18:12:00.590Z,87.13
2023-02-06T18:14:27.323Z,86.85
2023-02-06T18:16:54.064Z,87.21
2023-02-06T18:19:20.915Z,89.83
2023-02-06T18:21:47.401Z,90.29
2023-02-06T18:24:14.093Z,89.16
2023-02-06T18:26:40.659Z,87.33
2023-02-06T18:29:07.093Z,86.81
2023-02-06T18:31:35.978Z,87.18
2023-02-06T18:34:05.070Z,87.55
2023-02-06T18:36:31.655Z,87.89
2023-02-06T18:38:58.442Z,88.90
2023-02-06T18:41:26.442Z,89.22
2023-02-06T18:43:52.959Z,89.38
2023-02-06T18:46:19.454Z,89.50
2023-02-06T18:48:46.453Z,90.59
2023-02-06T18:51:13.195Z,88.63
2023-02-06T18:53:39.833Z,89.39
2023-02-06T18:56:06.891Z,87.90
2023-02-06T18:58:33.835Z,87.27
2023-02-06T19:01:00.617Z,87.19
2023-02-06T19:03:27.186Z,87.49
2023-02-06T19:05:53.871Z,88.05
2023-02-06T19:08:20.406Z,88.27
2023-02-06T19:10:46.877Z,88.79
2023-02-06T19:13:13.588Z,88.32
2023-02-06T19:15:40.331Z,88.21
2023-02-06T19:18:07.178Z,88.51
2023-02-06T19:20:33.938Z,87.98
2023-02-06T19:23:00.416Z,88.04
2023-02-06T19:25:27.050Z,90.57
2023-02-06T19:27:54.053Z,91.07
2023-02-06T19:30:20.782Z,90.30
2023-02-06T19:32:47.550Z,89.09
2023-02-06T19:35:14.038Z,89.55
2023-02-06T19:37:40.726Z,93.43
2023-02-06T19:40:07.586Z,93.63
2023-02-06T19:42:34.355Z,92.76
2023-02-06T19:45:01.263Z,91.88
2023-02-06T19:47:28.115Z,92.40
2023-02-06T19:49:54.852Z,91.70
2023-02-06T19:52:21.800Z,93.08
2023-02-06T19:54:48.685Z,99.15
2023-02-06T19:57:15.459Z,99.27
2023-02-06T19:59:41.919Z,97.36
2023-02-06T20:02:13.077Z,94.65
2023-02-06T20:04:40.327Z,92.99
2023-02-06T20:07:07.265Z,92.57
2023-02-06T20:09:34.472Z,92.76
2023-02-06T20:12:00.952Z,92.36
2023-02-06T20:14:28.202Z,91.74
2023-02-06T20:16:54.946Z,91.68
2023-02-06T20:19:25.437Z,91.59
2023-02-06T20:21:58.099Z,91.64
2023-02-06T20:24:29.192Z,91.68
2023-02-06T20:26:59.792Z,92.06
2023-02-06T20:29:29.502Z,92.92
2023-02-06T20:31:57.200Z,94.15
2023-02-06T20:34:26.554Z,92.13
2023-02-06T20:36:53.859Z,91.36
2023-02-06T20:39:20.540Z,92.03
2023-02-06T20:41:49.050Z,97.34
2023-02-06T20:44:16.369Z,95.40
2023-02-06T20:46:43.319Z,93.75
2023-02-06T20:49:18.947Z,92.54
2023-02-06T20:51:45.730Z,92.11
2023-02-06T20:54:12.402Z,92.24
2023-02-06T20:56:41.310Z,92.36
2023-02-06T20:59:08.724Z,92.33
2023-02-06T21:01:35.440Z,94.23
2023-02-06T21:04:07.659Z,96.13
2023-02-06T21:06:36.009Z,94.25
2023-02-06T21:09:04.908Z,93.41
2023-02-06T21:11:34.441Z,92.92
2023-02-06T21:14:03.690Z,93.89
2023-02-06T21:16:32.170Z,93.00
2023-02-06T21:18:59.995Z,92.52
2023-02-06T21:21:27.204Z,92.27
2023-02-06T21:23:54.706Z,91.82
2023-02-06T21:26:21.858Z,91.73
2023-02-06T21:28:48.316Z,91.94
2023-02-06T21:31:18.516Z,92.86
2023-02-06T21:33:46.734Z,93.58
2023-02-06T21:36:13.818Z,93.67
2023-02-06T21:38:41.091Z,92.40
2023-02-06T21:41:14.206Z,91.55
2023-02-06T21:43:41.153Z,91.68
2023-02-06T21:46:07.944Z,91.50
2023-02-06T21:48:35.078Z,91.60
2023-02-06T21:51:12.747Z,91.27
2023-02-06T21:53:40.133Z,91.17
2023-02-06T21:56:09.110Z,91.08
2023-02-06T21:58:36.538Z,91.71
2023-02-06T22:01:03.893Z,94.18
2023-02-06T22:03:30.360Z,95.69
2023-02-06T22:06:02.351Z,94.38
2023-02-06T22:08:29.076Z,93.58
2023-02-06T22:10:55.618Z,93.14
2023-02-06T22:13:22.158Z,92.78
2023-02-06T22:15:49.138Z,92.27
2023-02-06T22:18:15.566Z,92.23
2023-02-06T22:20:42.084Z,92.00
2023-02-06T22:23:08.622Z,91.82
2023-02-06T22:25:37.019Z,92.24
2023-02-06T22:28:03.787Z,92.29
2023-02-06T22:30:30.481Z,92.13
2023-02-06T22:32:56.964Z,92.15
2023-02-06T22:35:23.460Z,92.23
2023-02-06T22:37:50.001Z,92.89
2023-02-06T22:40:16.994Z,92.28
2023-02-06T22:42:43.489Z,92.48
2023-02-06T22:45:10.279Z,92.87
2023-02-06T22:47:36.728Z,92.35
2023-02-06T22:50:04.032Z,92.33
2023-02-06T22:52:30.579Z,91.95
2023-02-06T22:54:56.987Z,91.82
2023-02-06T22:57:23.548Z,92.46
2023-02-06T22:59:50.081Z,92.56
2023-02-06T23:02:16.773Z,92.38
2023-02-06T23:04:43.384Z,93.09
2023-02-06T23:07:10.021Z,93.10
2023-02-06T23:09:38.080Z,92.54
2023-02-06T23:12:05.968Z,92.47
2023-02-06T23:14:33.402Z,92.17
2023-02-06T23:17:01.105Z,92.36
2023-02-06T23:19:28.439Z,92.43
2023-02-06T23:21:55.185Z,92.29
2023-02-06T23:24:21.893Z,92.40
2023-02-06T23:26:50.487Z,92.28
2023-02-06T23:29:19.281Z,92.31
2023-02-06T23:31:47.323Z,92.27
2023-02-06T23:34:15.042Z,92.10
2023-02-06T23:36:41.573Z,91.97
2023-02-06T23:39:08.064Z,92.14
2023-02-06T23:41:34.965Z,92.20
2023-02-06T23:44:04.223Z,92.14
2023-02-06T23:46:32.766Z,92.43
2023-02-06T23:48:59.780Z,92.44
2023-02-06T23:51:26.789Z,92.69
2023-02-06T23:53:53.782Z,92.72
2023-02-06T23:56:23.682Z,92.39
2023-02-06T23:58:51.394Z,92.35
